This is the latest recevied weather packets stored in our database for station/object KC0AFB. If no packets are shown the sender has not sent any weather packets the latest 10 day(s).
| Time | Temp. | Humidity | Pressure | Rain* | Wind** | Luminosity | Snow |
|---|---|---|---|---|---|---|---|
| 1778179509 | 15° C | 31% | 1010.4 hPa | 0 mm | - | 659 W/m² | - |
| 1778179207 | 15° C | 30% | 1010.5 hPa | 0 mm | - | 721 W/m² | - |
| 1778178902 | 15° C | 33% | 1010.3 hPa | 0 mm | - | 704 W/m² | - |
| 1778178600 | 14.44° C | 31% | 1010.7 hPa | 0 mm | - | 701 W/m² | - |
| 1778178296 | 14.44° C | 31% | 1010.7 hPa | 0 mm | - | 625 W/m² | - |
| 1778177992 | 13.89° C | 30% | 1010.8 hPa | 0 mm | - | 681 W/m² | - |
| 1778177689 | 15° C | 31% | 1010.8 hPa | 0 mm | - | 707 W/m² | - |
| 1778177385 | 14.44° C | 31% | 1010.8 hPa | 0 mm | - | 727 W/m² | - |
| 1778177082 | 14.44° C | 32% | 1010.9 hPa | 0 mm | - | 695 W/m² | - |
| 1778176778 | 13.89° C | 32% | 1010.9 hPa | 0 mm | - | 743 W/m² | - |
| 1778176475 | 13.89° C | 33% | 1011.2 hPa | 0 mm | - | 755 W/m² | - |
| 1778176173 | 14.44° C | 33% | 1011.1 hPa | 0 mm | - | 748 W/m² | - |
| 1778175869 | 13.89° C | 35% | 1011.1 hPa | 0 mm | - | 708 W/m² | - |
| 1778175567 | 13.89° C | 38% | 1011.2 hPa | 0 mm | - | 721 W/m² | - |
| 1778175264 | 13.89° C | 38% | 1011.1 hPa | 0 mm | - | 760 W/m² | - |
| 1778174961 | 12.78° C | 40% | 1011.2 hPa | 0 mm | - | 802 W/m² | - |
| 1778174657 | 12.78° C | 35% | 1011.3 hPa | 0 mm | - | 823 W/m² | - |
| 1778174353 | 12.78° C | 38% | 1011.3 hPa | 0 mm | - | 731 W/m² | - |
| 1778174050 | 12.78° C | 37% | 1011.4 hPa | 0 mm | - | 728 W/m² | - |
| 1778173747 | 12.78° C | 40% | 1011.3 hPa | 0 mm | - | 835 W/m² | - |
| 1778173443 | 12.78° C | 39% | 1011.5 hPa | 0 mm | - | 830 W/m² | - |
| 1778173140 | 12.78° C | 39% | 1011.7 hPa | 0 mm | - | 809 W/m² | - |
| 1778172835 | 11.67° C | 37% | 1011.9 hPa | 0 mm | - | 808 W/m² | - |
| 1778172532 | 12.22° C | 36% | 1011.9 hPa | 0 mm | - | 799 W/m² | - |
| 1778172229 | 12.22° C | 40% | 1011.6 hPa | 0 mm | - | 810 W/m² | - |
* Rain latest hour (hover to see other rain measurements)
** Current wind speed in m/s (hover to see current wind gust speed)